sensor_id;sensor_type;location;lat;lon;timestamp;temperature;humidity
32753;DHT22;19121;52.428;10.816;2023-05-10T00:02:21;21.10;40.80
32753;DHT22;19121;52.428;10.816;2023-05-10T00:04:46;21.10;40.80
32753;DHT22;19121;52.428;10.816;2023-05-10T00:07:12;21.10;40.80
32753;DHT22;19121;52.428;10.816;2023-05-10T00:09:37;21.00;40.80
32753;DHT22;19121;52.428;10.816;2023-05-10T00:12:03;21.00;40.80
32753;DHT22;19121;52.428;10.816;2023-05-10T00:14:28;21.00;40.80
32753;DHT22;19121;52.428;10.816;2023-05-10T00:16:53;21.00;40.80
32753;DHT22;19121;52.428;10.816;2023-05-10T00:19:19;21.00;40.80
32753;DHT22;19121;52.428;10.816;2023-05-10T00:21:44;21.00;40.80
32753;DHT22;19121;52.428;10.816;2023-05-10T00:24:10;21.00;40.80
32753;DHT22;19121;52.428;10.816;2023-05-10T00:26:35;21.00;40.90
32753;DHT22;19121;52.428;10.816;2023-05-10T00:29:01;21.00;40.80
32753;DHT22;19121;52.428;10.816;2023-05-10T00:31:26;21.00;40.90
32753;DHT22;19121;52.428;10.816;2023-05-10T00:33:51;21.00;40.90
32753;DHT22;19121;52.428;10.816;2023-05-10T00:36:17;21.00;40.90
32753;DHT22;19121;52.428;10.816;2023-05-10T00:38:42;20.90;40.90
32753;DHT22;19121;52.428;10.816;2023-05-10T00:41:08;20.90;40.90
32753;DHT22;19121;52.428;10.816;2023-05-10T00:43:33;20.90;40.90
32753;DHT22;19121;52.428;10.816;2023-05-10T00:45:59;20.90;40.90
32753;DHT22;19121;52.428;10.816;2023-05-10T00:48:24;20.90;40.90
32753;DHT22;19121;52.428;10.816;2023-05-10T00:50:50;20.90;41.00
32753;DHT22;19121;52.428;10.816;2023-05-10T00:53:15;20.90;41.00
32753;DHT22;19121;52.428;10.816;2023-05-10T00:55:41;20.90;41.00
32753;DHT22;19121;52.428;10.816;2023-05-10T00:58:07;20.90;41.00
32753;DHT22;19121;52.428;10.816;2023-05-10T01:00:33;20.90;41.00
32753;DHT22;19121;52.428;10.816;2023-05-10T01:02:58;20.90;40.90
32753;DHT22;19121;52.428;10.816;2023-05-10T01:05:24;20.90;41.00
32753;DHT22;19121;52.428;10.816;2023-05-10T01:07:50;20.90;41.00
32753;DHT22;19121;52.428;10.816;2023-05-10T01:10:15;20.90;41.00
32753;DHT22;19121;52.428;10.816;2023-05-10T01:12:43;20.90;41.00
32753;DHT22;19121;52.428;10.816;2023-05-10T01:15:10;20.90;41.00
32753;DHT22;19121;52.428;10.816;2023-05-10T01:17:36;20.80;40.90
32753;DHT22;19121;52.428;10.816;2023-05-10T01:20:03;20.80;41.00
32753;DHT22;19121;52.428;10.816;2023-05-10T01:35:37;20.80;41.00
32753;DHT22;19121;52.428;10.816;2023-05-10T01:42:55;20.80;41.00
32753;DHT22;19121;52.428;10.816;2023-05-10T01:45:27;20.80;41.10
32753;DHT22;19121;52.428;10.816;2023-05-10T01:47:55;20.80;41.00
32753;DHT22;19121;52.428;10.816;2023-05-10T01:50:27;20.70;40.90
32753;DHT22;19121;52.428;10.816;2023-05-10T01:52:55;20.80;41.10
32753;DHT22;19121;52.428;10.816;2023-05-10T01:55:22;20.80;41.10
32753;DHT22;19121;52.428;10.816;2023-05-10T01:57:48;20.80;41.00
32753;DHT22;19121;52.428;10.816;2023-05-10T02:00:16;20.80;41.10
32753;DHT22;19121;52.428;10.816;2023-05-10T02:02:45;20.70;41.00
32753;DHT22;19121;52.428;10.816;2023-05-10T02:05:11;20.70;41.10
32753;DHT22;19121;52.428;10.816;2023-05-10T02:07:37;20.70;41.00
32753;DHT22;19121;52.428;10.816;2023-05-10T02:10:04;20.70;41.00
32753;DHT22;19121;52.428;10.816;2023-05-10T02:12:30;20.70;41.00
32753;DHT22;19121;52.428;10.816;2023-05-10T02:14:56;20.70;41.10
32753;DHT22;19121;52.428;10.816;2023-05-10T02:17:22;20.70;41.20
32753;DHT22;19121;52.428;10.816;2023-05-10T02:19:48;20.70;41.20
32753;DHT22;19121;52.428;10.816;2023-05-10T02:22:14;20.70;41.20
32753;DHT22;19121;52.428;10.816;2023-05-10T02:24:40;20.70;41.20
32753;DHT22;19121;52.428;10.816;2023-05-10T02:27:06;20.70;41.20
32753;DHT22;19121;52.428;10.816;2023-05-10T02:29:32;20.70;41.20
32753;DHT22;19121;52.428;10.816;2023-05-10T02:31:58;20.80;41.40
32753;DHT22;19121;52.428;10.816;2023-05-10T02:34:27;20.80;41.40
32753;DHT22;19121;52.428;10.816;2023-05-10T02:36:53;20.80;41.50
32753;DHT22;19121;52.428;10.816;2023-05-10T02:39:20;20.80;41.50
32753;DHT22;19121;52.428;10.816;2023-05-10T02:41:46;20.80;41.50
32753;DHT22;19121;52.428;10.816;2023-05-10T02:44:14;20.70;41.50
32753;DHT22;19121;52.428;10.816;2023-05-10T02:46:39;20.80;41.60
32753;DHT22;19121;52.428;10.816;2023-05-10T02:49:05;20.70;41.60
32753;DHT22;19121;52.428;10.816;2023-05-10T02:51:31;20.80;41.70
32753;DHT22;19121;52.428;10.816;2023-05-10T02:53:57;20.70;41.60
32753;DHT22;19121;52.428;10.816;2023-05-10T02:56:28;20.80;41.70
32753;DHT22;19121;52.428;10.816;2023-05-10T02:58:54;20.80;41.70
32753;DHT22;19121;52.428;10.816;2023-05-10T03:01:20;20.80;41.70
32753;DHT22;19121;52.428;10.816;2023-05-10T03:03:45;20.80;41.70
32753;DHT22;19121;52.428;10.816;2023-05-10T03:06:10;20.80;41.70
32753;DHT22;19121;52.428;10.816;2023-05-10T03:08:36;20.80;41.70
32753;DHT22;19121;52.428;10.816;2023-05-10T03:11:07;20.80;41.70
32753;DHT22;19121;52.428;10.816;2023-05-10T03:13:36;20.80;41.70
32753;DHT22;19121;52.428;10.816;2023-05-10T03:16:08;20.70;41.60
32753;DHT22;19121;52.428;10.816;2023-05-10T03:18:47;20.80;41.60
32753;DHT22;19121;52.428;10.816;2023-05-10T03:21:16;20.70;41.50
32753;DHT22;19121;52.428;10.816;2023-05-10T03:23:43;20.70;41.50
32753;DHT22;19121;52.428;10.816;2023-05-10T03:26:09;20.70;41.50
32753;DHT22;19121;52.428;10.816;2023-05-10T03:28:35;20.70;41.50
32753;DHT22;19121;52.428;10.816;2023-05-10T03:31:02;20.70;41.40
32753;DHT22;19121;52.428;10.816;2023-05-10T03:33:27;20.70;41.40
32753;DHT22;19121;52.428;10.816;2023-05-10T03:35:53;20.70;41.30
32753;DHT22;19121;52.428;10.816;2023-05-10T03:38:18;20.70;41.10
32753;DHT22;19121;52.428;10.816;2023-05-10T03:40:44;20.70;41.10
32753;DHT22;19121;52.428;10.816;2023-05-10T03:43:09;20.70;41.10
32753;DHT22;19121;52.428;10.816;2023-05-10T03:45:35;20.70;41.00
32753;DHT22;19121;52.428;10.816;2023-05-10T03:48:00;20.60;41.00
32753;DHT22;19121;52.428;10.816;2023-05-10T03:50:26;20.70;41.00
32753;DHT22;19121;52.428;10.816;2023-05-10T03:52:52;20.60;41.00
32753;DHT22;19121;52.428;10.816;2023-05-10T03:55:17;20.70;41.10
32753;DHT22;19121;52.428;10.816;2023-05-10T03:57:43;20.70;41.10
32753;DHT22;19121;52.428;10.816;2023-05-10T04:00:08;20.60;41.00
32753;DHT22;19121;52.428;10.816;2023-05-10T04:02:34;20.70;41.10
32753;DHT22;19121;52.428;10.816;2023-05-10T04:05:00;20.60;41.00
32753;DHT22;19121;52.428;10.816;2023-05-10T04:07:25;20.70;41.30
32753;DHT22;19121;52.428;10.816;2023-05-10T04:09:51;20.60;41.30
32753;DHT22;19121;52.428;10.816;2023-05-10T04:12:16;20.70;41.40
32753;DHT22;19121;52.428;10.816;2023-05-10T04:14:41;20.70;41.40
32753;DHT22;19121;52.428;10.816;2023-05-10T04:17:07;20.70;41.40
32753;DHT22;19121;52.428;10.816;2023-05-10T04:19:32;20.60;41.40
32753;DHT22;19121;52.428;10.816;2023-05-10T04:21:58;20.70;41.40
32753;DHT22;19121;52.428;10.816;2023-05-10T04:24:23;20.60;41.40
32753;DHT22;19121;52.428;10.816;2023-05-10T04:26:49;20.70;41.50
32753;DHT22;19121;52.428;10.816;2023-05-10T04:29:14;20.60;41.40
32753;DHT22;19121;52.428;10.816;2023-05-10T04:31:40;20.60;41.40
32753;DHT22;19121;52.428;10.816;2023-05-10T04:34:06;20.60;41.30
32753;DHT22;19121;52.428;10.816;2023-05-10T04:36:31;20.70;41.40
32753;DHT22;19121;52.428;10.816;2023-05-10T04:38:59;20.70;41.40
32753;DHT22;19121;52.428;10.816;2023-05-10T04:41:24;20.70;41.30
32753;DHT22;19121;52.428;10.816;2023-05-10T04:43:50;20.70;41.30
32753;DHT22;19121;52.428;10.816;2023-05-10T04:46:16;20.70;41.20
32753;DHT22;19121;52.428;10.816;2023-05-10T04:48:41;20.70;41.20
32753;DHT22;19121;52.428;10.816;2023-05-10T04:51:07;20.70;41.20
32753;DHT22;19121;52.428;10.816;2023-05-10T04:53:32;20.70;41.20
32753;DHT22;19121;52.428;10.816;2023-05-10T04:55:57;20.70;41.20
32753;DHT22;19121;52.428;10.816;2023-05-10T04:58:23;20.70;41.20
32753;DHT22;19121;52.428;10.816;2023-05-10T05:00:48;20.70;41.20
32753;DHT22;19121;52.428;10.816;2023-05-10T05:03:14;20.70;41.20
32753;DHT22;19121;52.428;10.816;2023-05-10T05:05:40;20.70;41.20
32753;DHT22;19121;52.428;10.816;2023-05-10T05:08:05;20.70;41.20
32753;DHT22;19121;52.428;10.816;2023-05-10T05:10:31;20.70;41.30
32753;DHT22;19121;52.428;10.816;2023-05-10T05:12:56;20.80;41.30
32753;DHT22;19121;52.428;10.816;2023-05-10T05:15:21;20.80;41.30
32753;DHT22;19121;52.428;10.816;2023-05-10T05:17:47;20.80;41.30
32753;DHT22;19121;52.428;10.816;2023-05-10T05:20:12;20.80;41.30
32753;DHT22;19121;52.428;10.816;2023-05-10T05:22:38;20.80;41.30
32753;DHT22;19121;52.428;10.816;2023-05-10T05:25:04;20.90;41.30
32753;DHT22;19121;52.428;10.816;2023-05-10T05:27:29;20.90;41.30
32753;DHT22;19121;52.428;10.816;2023-05-10T05:29:55;20.90;41.30
32753;DHT22;19121;52.428;10.816;2023-05-10T05:32:21;20.90;41.20
32753;DHT22;19121;52.428;10.816;2023-05-10T05:34:47;20.90;41.20
32753;DHT22;19121;52.428;10.816;2023-05-10T05:37:16;21.00;41.30
32753;DHT22;19121;52.428;10.816;2023-05-10T05:39:41;21.00;41.40
32753;DHT22;19121;52.428;10.816;2023-05-10T05:42:08;21.00;41.30
32753;DHT22;19121;52.428;10.816;2023-05-10T05:44:33;21.00;42.30
32753;DHT22;19121;52.428;10.816;2023-05-10T05:46:58;21.00;43.10
32753;DHT22;19121;52.428;10.816;2023-05-10T05:49:24;21.10;43.50
32753;DHT22;19121;52.428;10.816;2023-05-10T05:51:49;21.10;42.60
32753;DHT22;19121;52.428;10.816;2023-05-10T05:54:15;21.10;42.50
32753;DHT22;19121;52.428;10.816;2023-05-10T05:56:40;21.10;42.40
32753;DHT22;19121;52.428;10.816;2023-05-10T05:59:06;21.10;42.30
32753;DHT22;19121;52.428;10.816;2023-05-10T06:01:31;21.10;42.40
32753;DHT22;19121;52.428;10.816;2023-05-10T06:03:57;21.10;42.20
32753;DHT22;19121;52.428;10.816;2023-05-10T06:06:22;21.10;42.70
32753;DHT22;19121;52.428;10.816;2023-05-10T06:08:48;21.10;43.10
32753;DHT22;19121;52.428;10.816;2023-05-10T06:11:13;21.10;43.60
32753;DHT22;19121;52.428;10.816;2023-05-10T06:13:38;21.10;44.00
32753;DHT22;19121;52.428;10.816;2023-05-10T06:16:04;21.20;44.10
32753;DHT22;19121;52.428;10.816;2023-05-10T06:18:29;21.20;44.10
32753;DHT22;19121;52.428;10.816;2023-05-10T06:20:55;21.20;43.60
32753;DHT22;19121;52.428;10.816;2023-05-10T06:23:20;21.20;43.70
32753;DHT22;19121;52.428;10.816;2023-05-10T06:25:47;21.20;43.80
32753;DHT22;19121;52.428;10.816;2023-05-10T06:28:12;21.20;43.90
32753;DHT22;19121;52.428;10.816;2023-05-10T06:30:38;21.30;43.20
32753;DHT22;19121;52.428;10.816;2023-05-10T06:33:03;21.30;42.80
32753;DHT22;19121;52.428;10.816;2023-05-10T06:35:29;21.20;42.70
32753;DHT22;19121;52.428;10.816;2023-05-10T06:37:54;21.20;42.60
32753;DHT22;19121;52.428;10.816;2023-05-10T06:40:20;21.20;42.90
32753;DHT22;19121;52.428;10.816;2023-05-10T06:42:46;21.20;42.80
32753;DHT22;19121;52.428;10.816;2023-05-10T06:45:11;21.20;42.60
32753;DHT22;19121;52.428;10.816;2023-05-10T06:47:37;21.20;42.90
32753;DHT22;19121;52.428;10.816;2023-05-10T06:50:03;21.20;42.80
32753;DHT22;19121;52.428;10.816;2023-05-10T06:52:28;21.20;42.80
32753;DHT22;19121;52.428;10.816;2023-05-10T06:54:54;21.20;42.80
32753;DHT22;19121;52.428;10.816;2023-05-10T06:57:19;21.30;42.80
32753;DHT22;19121;52.428;10.816;2023-05-10T06:59:45;21.30;42.80
32753;DHT22;19121;52.428;10.816;2023-05-10T07:02:11;21.30;42.70
32753;DHT22;19121;52.428;10.816;2023-05-10T07:04:36;21.30;42.60
32753;DHT22;19121;52.428;10.816;2023-05-10T07:07:02;21.30;42.70
32753;DHT22;19121;52.428;10.816;2023-05-10T07:09:27;21.40;42.80
32753;DHT22;19121;52.428;10.816;2023-05-10T07:11:53;21.40;43.10
32753;DHT22;19121;52.428;10.816;2023-05-10T07:14:18;21.40;43.30
32753;DHT22;19121;52.428;10.816;2023-05-10T07:16:44;21.40;43.20
32753;DHT22;19121;52.428;10.816;2023-05-10T07:19:09;21.50;43.20
32753;DHT22;19121;52.428;10.816;2023-05-10T07:21:35;21.40;43.10
32753;DHT22;19121;52.428;10.816;2023-05-10T07:24:01;21.40;43.10
32753;DHT22;19121;52.428;10.816;2023-05-10T07:26:27;21.50;43.20
32753;DHT22;19121;52.428;10.816;2023-05-10T07:28:52;21.50;43.20
32753;DHT22;19121;52.428;10.816;2023-05-10T07:31:17;21.50;43.30
32753;DHT22;19121;52.428;10.816;2023-05-10T07:33:43;21.50;43.10
32753;DHT22;19121;52.428;10.816;2023-05-10T07:36:09;21.50;43.10
32753;DHT22;19121;52.428;10.816;2023-05-10T07:38:34;21.50;42.90
32753;DHT22;19121;52.428;10.816;2023-05-10T07:40:59;21.50;43.00
32753;DHT22;19121;52.428;10.816;2023-05-10T07:43:25;21.60;43.00
32753;DHT22;19121;52.428;10.816;2023-05-10T07:45:50;21.60;42.80
32753;DHT22;19121;52.428;10.816;2023-05-10T07:48:16;21.60;42.70
32753;DHT22;19121;52.428;10.816;2023-05-10T07:50:42;21.60;42.50
32753;DHT22;19121;52.428;10.816;2023-05-10T07:53:07;21.60;42.30
32753;DHT22;19121;52.428;10.816;2023-05-10T07:55:32;21.60;42.40
32753;DHT22;19121;52.428;10.816;2023-05-10T07:57:58;21.60;42.30
32753;DHT22;19121;52.428;10.816;2023-05-10T08:00:26;21.60;42.30
32753;DHT22;19121;52.428;10.816;2023-05-10T08:02:51;21.70;42.20
32753;DHT22;19121;52.428;10.816;2023-05-10T08:05:17;21.70;42.20
32753;DHT22;19121;52.428;10.816;2023-05-10T08:07:42;21.70;42.20
32753;DHT22;19121;52.428;10.816;2023-05-10T08:10:08;21.70;42.20
32753;DHT22;19121;52.428;10.816;2023-05-10T08:12:33;21.70;42.80
32753;DHT22;19121;52.428;10.816;2023-05-10T08:14:59;21.80;42.20
32753;DHT22;19121;52.428;10.816;2023-05-10T08:17:24;21.80;42.10
32753;DHT22;19121;52.428;10.816;2023-05-10T08:19:50;21.80;42.10
32753;DHT22;19121;52.428;10.816;2023-05-10T08:22:15;21.80;42.10
32753;DHT22;19121;52.428;10.816;2023-05-10T08:24:41;21.80;42.10
32753;DHT22;19121;52.428;10.816;2023-05-10T08:27:07;21.80;42.10
32753;DHT22;19121;52.428;10.816;2023-05-10T08:29:33;21.80;42.10
32753;DHT22;19121;52.428;10.816;2023-05-10T08:31:58;21.80;42.20
32753;DHT22;19121;52.428;10.816;2023-05-10T08:34:24;21.80;42.30
32753;DHT22;19121;52.428;10.816;2023-05-10T08:36:50;21.80;42.30
32753;DHT22;19121;52.428;10.816;2023-05-10T08:39:15;21.80;42.30
32753;DHT22;19121;52.428;10.816;2023-05-10T08:41:41;21.80;42.30
32753;DHT22;19121;52.428;10.816;2023-05-10T08:44:09;21.90;42.30
32753;DHT22;19121;52.428;10.816;2023-05-10T08:46:35;21.90;42.40
32753;DHT22;19121;52.428;10.816;2023-05-10T08:49:03;21.90;42.50
32753;DHT22;19121;52.428;10.816;2023-05-10T08:51:30;21.90;42.50
32753;DHT22;19121;52.428;10.816;2023-05-10T08:53:57;21.90;42.50
32753;DHT22;19121;52.428;10.816;2023-05-10T08:56:23;21.90;42.60
32753;DHT22;19121;52.428;10.816;2023-05-10T08:58:49;21.90;42.60
32753;DHT22;19121;52.428;10.816;2023-05-10T09:01:15;21.90;42.60
32753;DHT22;19121;52.428;10.816;2023-05-10T09:03:41;21.90;42.70
32753;DHT22;19121;52.428;10.816;2023-05-10T09:06:07;21.90;42.70
32753;DHT22;19121;52.428;10.816;2023-05-10T09:08:33;21.90;42.80
32753;DHT22;19121;52.428;10.816;2023-05-10T09:10:58;21.90;42.80
32753;DHT22;19121;52.428;10.816;2023-05-10T09:13:25;21.90;42.90
32753;DHT22;19121;52.428;10.816;2023-05-10T09:15:51;21.90;42.90
32753;DHT22;19121;52.428;10.816;2023-05-10T09:18:17;21.90;43.00
32753;DHT22;19121;52.428;10.816;2023-05-10T09:20:42;21.90;43.00
32753;DHT22;19121;52.428;10.816;2023-05-10T09:23:08;21.90;43.10
32753;DHT22;19121;52.428;10.816;2023-05-10T09:25:33;21.90;43.10
32753;DHT22;19121;52.428;10.816;2023-05-10T09:27:59;21.80;43.10
32753;DHT22;19121;52.428;10.816;2023-05-10T09:32:50;21.90;43.20
32753;DHT22;19121;52.428;10.816;2023-05-10T09:35:16;21.90;43.20
32753;DHT22;19121;52.428;10.816;2023-05-10T09:37:42;21.80;43.20
32753;DHT22;19121;52.428;10.816;2023-05-10T09:40:12;21.90;43.30
32753;DHT22;19121;52.428;10.816;2023-05-10T09:42:38;21.90;43.30
32753;DHT22;19121;52.428;10.816;2023-05-10T09:45:03;21.90;43.40
32753;DHT22;19121;52.428;10.816;2023-05-10T09:47:31;21.90;43.40
32753;DHT22;19121;52.428;10.816;2023-05-10T09:49:57;21.90;43.40
32753;DHT22;19121;52.428;10.816;2023-05-10T09:52:28;21.90;43.40
32753;DHT22;19121;52.428;10.816;2023-05-10T09:54:53;21.90;43.50
32753;DHT22;19121;52.428;10.816;2023-05-10T09:57:20;21.90;43.50
32753;DHT22;19121;52.428;10.816;2023-05-10T09:59:49;21.90;43.60
32753;DHT22;19121;52.428;10.816;2023-05-10T10:02:15;21.90;43.60
32753;DHT22;19121;52.428;10.816;2023-05-10T10:04:42;21.90;43.70
32753;DHT22;19121;52.428;10.816;2023-05-10T10:07:07;21.90;43.70
32753;DHT22;19121;52.428;10.816;2023-05-10T10:09:33;22.00;43.70
32753;DHT22;19121;52.428;10.816;2023-05-10T10:12:02;22.00;43.70
32753;DHT22;19121;52.428;10.816;2023-05-10T10:14:28;21.90;43.70
32753;DHT22;19121;52.428;10.816;2023-05-10T10:16:54;22.00;43.70
32753;DHT22;19121;52.428;10.816;2023-05-10T10:19:19;22.00;43.70
32753;DHT22;19121;52.428;10.816;2023-05-10T10:21:49;22.00;43.70
32753;DHT22;19121;52.428;10.816;2023-05-10T10:24:14;22.00;43.70
32753;DHT22;19121;52.428;10.816;2023-05-10T10:26:40;22.00;43.70
32753;DHT22;19121;52.428;10.816;2023-05-10T10:29:21;22.10;43.80
32753;DHT22;19121;52.428;10.816;2023-05-10T10:31:51;22.00;43.80
32753;DHT22;19121;52.428;10.816;2023-05-10T10:34:30;22.00;43.80
32753;DHT22;19121;52.428;10.816;2023-05-10T10:36:56;22.10;43.80
32753;DHT22;19121;52.428;10.816;2023-05-10T10:39:22;22.10;43.90
32753;DHT22;19121;52.428;10.816;2023-05-10T10:41:51;22.10;43.90
32753;DHT22;19121;52.428;10.816;2023-05-10T10:52:21;22.10;44.70
32753;DHT22;19121;52.428;10.816;2023-05-10T10:55:30;22.10;44.50
32753;DHT22;19121;52.428;10.816;2023-05-10T11:03:10;22.20;44.60
32753;DHT22;19121;52.428;10.816;2023-05-10T11:05:45;22.20;44.90
32753;DHT22;19121;52.428;10.816;2023-05-10T11:10:36;22.20;44.90
32753;DHT22;19121;52.428;10.816;2023-05-10T11:17:59;22.20;45.00
32753;DHT22;19121;52.428;10.816;2023-05-10T11:20:28;22.20;45.00
32753;DHT22;19121;52.428;10.816;2023-05-10T11:23:00;22.10;44.90
32753;DHT22;19121;52.428;10.816;2023-05-10T11:25:39;22.20;45.00
32753;DHT22;19121;52.428;10.816;2023-05-10T11:28:05;22.20;45.00
32753;DHT22;19121;52.428;10.816;2023-05-10T11:30:31;22.20;45.00
32753;DHT22;19121;52.428;10.816;2023-05-10T11:32:56;22.20;45.00
32753;DHT22;19121;52.428;10.816;2023-05-10T11:35:22;22.20;45.00
32753;DHT22;19121;52.428;10.816;2023-05-10T11:37:47;22.20;45.00
32753;DHT22;19121;52.428;10.816;2023-05-10T11:40:13;22.20;45.10
32753;DHT22;19121;52.428;10.816;2023-05-10T11:42:39;22.30;45.20
32753;DHT22;19121;52.428;10.816;2023-05-10T11:45:05;22.20;45.20
32753;DHT22;19121;52.428;10.816;2023-05-10T11:47:31;22.30;45.20
32753;DHT22;19121;52.428;10.816;2023-05-10T11:49:56;22.30;44.90
32753;DHT22;19121;52.428;10.816;2023-05-10T11:52:22;22.30;44.80
32753;DHT22;19121;52.428;10.816;2023-05-10T11:54:51;22.30;44.80
32753;DHT22;19121;52.428;10.816;2023-05-10T11:57:17;22.30;44.80
32753;DHT22;19121;52.428;10.816;2023-05-10T11:59:43;22.20;44.70
32753;DHT22;19121;52.428;10.816;2023-05-10T12:02:08;22.30;44.80
32753;DHT22;19121;52.428;10.816;2023-05-10T12:04:35;22.20;44.80
32753;DHT22;19121;52.428;10.816;2023-05-10T12:07:00;22.20;44.80
32753;DHT22;19121;52.428;10.816;2023-05-10T12:09:26;22.20;44.90
32753;DHT22;19121;52.428;10.816;2023-05-10T12:11:54;22.20;44.90
32753;DHT22;19121;52.428;10.816;2023-05-10T12:14:21;22.20;44.90
32753;DHT22;19121;52.428;10.816;2023-05-10T12:16:47;22.20;44.90
32753;DHT22;19121;52.428;10.816;2023-05-10T12:19:12;22.20;45.00
32753;DHT22;19121;52.428;10.816;2023-05-10T12:21:43;22.20;45.00
32753;DHT22;19121;52.428;10.816;2023-05-10T12:24:09;22.20;45.00
32753;DHT22;19121;52.428;10.816;2023-05-10T12:26:35;22.20;45.10
32753;DHT22;19121;52.428;10.816;2023-05-10T12:29:19;22.20;45.10
32753;DHT22;19121;52.428;10.816;2023-05-10T12:31:49;22.20;45.10
32753;DHT22;19121;52.428;10.816;2023-05-10T12:34:31;22.20;45.20
32753;DHT22;19121;52.428;10.816;2023-05-10T12:36:57;22.20;45.20
32753;DHT22;19121;52.428;10.816;2023-05-10T12:39:23;22.20;45.20
32753;DHT22;19121;52.428;10.816;2023-05-10T12:41:48;22.20;45.20
32753;DHT22;19121;52.428;10.816;2023-05-10T12:44:14;22.20;45.30
32753;DHT22;19121;52.428;10.816;2023-05-10T12:46:39;22.10;45.20
32753;DHT22;19121;52.428;10.816;2023-05-10T12:49:05;22.20;45.30
32753;DHT22;19121;52.428;10.816;2023-05-10T12:51:30;22.20;45.30
32753;DHT22;19121;52.428;10.816;2023-05-10T12:53:56;22.20;45.30
32753;DHT22;19121;52.428;10.816;2023-05-10T12:56:21;22.20;45.30
32753;DHT22;19121;52.428;10.816;2023-05-10T12:58:47;22.20;45.40
32753;DHT22;19121;52.428;10.816;2023-05-10T13:01:13;22.20;45.40
32753;DHT22;19121;52.428;10.816;2023-05-10T13:03:39;22.20;45.50
32753;DHT22;19121;52.428;10.816;2023-05-10T13:06:04;22.20;45.50
32753;DHT22;19121;52.428;10.816;2023-05-10T13:08:30;22.20;46.20
32753;DHT22;19121;52.428;10.816;2023-05-10T13:11:01;22.20;45.70
32753;DHT22;19121;52.428;10.816;2023-05-10T13:13:27;22.20;45.60
32753;DHT22;19121;52.428;10.816;2023-05-10T13:15:53;22.20;45.70
32753;DHT22;19121;52.428;10.816;2023-05-10T13:18:18;22.20;45.70
32753;DHT22;19121;52.428;10.816;2023-05-10T13:20:43;22.20;45.80
32753;DHT22;19121;52.428;10.816;2023-05-10T13:23:09;22.20;45.80
32753;DHT22;19121;52.428;10.816;2023-05-10T13:25:35;22.20;45.80
32753;DHT22;19121;52.428;10.816;2023-05-10T13:28:01;22.20;45.80
32753;DHT22;19121;52.428;10.816;2023-05-10T13:30:26;22.20;45.90
32753;DHT22;19121;52.428;10.816;2023-05-10T13:32:51;22.20;45.80
32753;DHT22;19121;52.428;10.816;2023-05-10T13:35:17;22.20;45.80
32753;DHT22;19121;52.428;10.816;2023-05-10T13:37:42;22.20;45.90
32753;DHT22;19121;52.428;10.816;2023-05-10T13:40:08;22.20;45.80
32753;DHT22;19121;52.428;10.816;2023-05-10T13:42:33;22.20;45.90
32753;DHT22;19121;52.428;10.816;2023-05-10T13:44:59;22.20;45.90
32753;DHT22;19121;52.428;10.816;2023-05-10T13:47:26;22.30;45.90
32753;DHT22;19121;52.428;10.816;2023-05-10T13:49:51;22.30;45.90
32753;DHT22;19121;52.428;10.816;2023-05-10T13:52:17;22.30;45.90
32753;DHT22;19121;52.428;10.816;2023-05-10T13:54:43;22.30;45.90
32753;DHT22;19121;52.428;10.816;2023-05-10T13:57:08;22.30;45.90
32753;DHT22;19121;52.428;10.816;2023-05-10T13:59:34;22.30;45.90
32753;DHT22;19121;52.428;10.816;2023-05-10T14:01:59;22.30;45.90
32753;DHT22;19121;52.428;10.816;2023-05-10T14:04:25;22.30;45.90
32753;DHT22;19121;52.428;10.816;2023-05-10T14:06:51;22.30;45.90
32753;DHT22;19121;52.428;10.816;2023-05-10T14:09:18;22.30;45.90
32753;DHT22;19121;52.428;10.816;2023-05-10T14:11:43;22.40;46.00
32753;DHT22;19121;52.428;10.816;2023-05-10T14:14:10;22.30;46.00
32753;DHT22;19121;52.428;10.816;2023-05-10T14:16:35;22.40;46.10
32753;DHT22;19121;52.428;10.816;2023-05-10T14:19:01;22.40;46.10
32753;DHT22;19121;52.428;10.816;2023-05-10T14:21:26;22.40;46.00
32753;DHT22;19121;52.428;10.816;2023-05-10T14:23:53;22.40;46.00
32753;DHT22;19121;52.428;10.816;2023-05-10T14:26:19;22.40;46.00
32753;DHT22;19121;52.428;10.816;2023-05-10T14:28:45;22.40;46.00
32753;DHT22;19121;52.428;10.816;2023-05-10T14:31:11;22.40;46.00
32753;DHT22;19121;52.428;10.816;2023-05-10T14:33:36;22.50;46.10
32753;DHT22;19121;52.428;10.816;2023-05-10T14:36:02;22.50;46.10
32753;DHT22;19121;52.428;10.816;2023-05-10T14:38:28;22.50;46.10
32753;DHT22;19121;52.428;10.816;2023-05-10T14:40:54;22.50;46.00
32753;DHT22;19121;52.428;10.816;2023-05-10T14:43:19;22.50;46.10
32753;DHT22;19121;52.428;10.816;2023-05-10T14:45:45;22.50;46.00
32753;DHT22;19121;52.428;10.816;2023-05-10T14:48:10;22.50;46.00
32753;DHT22;19121;52.428;10.816;2023-05-10T14:50:40;22.50;46.00
32753;DHT22;19121;52.428;10.816;2023-05-10T14:53:06;22.50;46.00
32753;DHT22;19121;52.428;10.816;2023-05-10T14:55:31;22.50;46.00
32753;DHT22;19121;52.428;10.816;2023-05-10T14:57:57;22.60;46.00
32753;DHT22;19121;52.428;10.816;2023-05-10T15:00:23;22.50;45.90
32753;DHT22;19121;52.428;10.816;2023-05-10T15:02:49;22.60;46.00
32753;DHT22;19121;52.428;10.816;2023-05-10T15:05:14;22.50;45.90
32753;DHT22;19121;52.428;10.816;2023-05-10T15:07:40;22.60;46.00
32753;DHT22;19121;52.428;10.816;2023-05-10T15:10:05;22.60;46.00
32753;DHT22;19121;52.428;10.816;2023-05-10T15:12:31;22.50;45.80
32753;DHT22;19121;52.428;10.816;2023-05-10T15:14:57;22.60;45.90
32753;DHT22;19121;52.428;10.816;2023-05-10T15:17:22;22.60;45.90
32753;DHT22;19121;52.428;10.816;2023-05-10T15:19:47;22.60;45.90
32753;DHT22;19121;52.428;10.816;2023-05-10T15:22:14;22.60;45.80
32753;DHT22;19121;52.428;10.816;2023-05-10T15:24:40;22.60;45.90
32753;DHT22;19121;52.428;10.816;2023-05-10T15:27:05;22.50;45.80
32753;DHT22;19121;52.428;10.816;2023-05-10T15:29:31;22.50;45.80
32753;DHT22;19121;52.428;10.816;2023-05-10T15:31:56;22.60;45.80
32753;DHT22;19121;52.428;10.816;2023-05-10T15:34:22;22.60;45.80
32753;DHT22;19121;52.428;10.816;2023-05-10T15:36:47;22.60;46.50
32753;DHT22;19121;52.428;10.816;2023-05-10T15:39:13;22.60;45.80
32753;DHT22;19121;52.428;10.816;2023-05-10T15:41:38;22.60;45.80
32753;DHT22;19121;52.428;10.816;2023-05-10T15:44:04;22.60;45.70
32753;DHT22;19121;52.428;10.816;2023-05-10T15:46:29;22.60;45.70
32753;DHT22;19121;52.428;10.816;2023-05-10T15:48:56;22.60;45.80
32753;DHT22;19121;52.428;10.816;2023-05-10T15:51:21;22.60;45.70